Savage Integrity — WDG5472 — position and weather

sailwx.info

Track history (hours):
 
Tides and Currents Weather Stations Pressure Air Temp Water Temp Dewpoint Dewpoint Depression Visibility Wind Speed Wind Dir Waves Ship Positions

Savage Integrity

Owner: Savage Inland Marine, Gibson, LA. More information available from US FCC via Universal Licensing System and Coast Guard Vessel Documentation Center.

Last reported at 2017-Sep-24 03:00 UTC. Time now 2017-Sep-24 03:16 UTC.
Position N 30°05' W 093°20'.

Length 25 m; draft 2.9 m.

Type: Towing. MMSI: 367547030.

Date/timePositionNaut miles runAvg speedWind from/ knotsBaromVisibWave heightAir tempDewpointWater temp
2017-Sep-24 03:00N 30°05' W 093°20'0 0.0
2017-Sep-24 02:30N 30°05' W 093°20'0 0.0
2017-Sep-24 02:00N 30°05' W 093°20'1 1.0
2017-Sep-24 01:30N 30°05' W 093°20'0 0.0
2017-Sep-24 01:00N 30°05' W 093°20'0 0.0
2017-Sep-24 00:30N 30°05' W 093°20'0 0.0
2017-Sep-24 00:01N 30°05' W 093°20'1 1.0
2017-Sep-23 23:30N 30°05' W 093°20'0 0.1
2017-Sep-23 23:00N 30°05' W 093°20'2 3.0
2017-Sep-23 22:30N 30°06' W 093°19'0 0.2
2017-Sep-23 22:00N 30°06' W 093°19'2 3.9
2017-Sep-23 21:30N 30°04' W 093°21'2 3.9
2017-Sep-23 21:01N 30°04' W 093°23'3 5.5
2017-Sep-23 20:30N 30°04' W 093°26'3 5.6
2017-Sep-23 20:00N 30°04' W 093°29'84 2.0
2017-Sep-22 02:00N 29°45' W 095°04'3 6.1
2017-Sep-22 01:30N 29°43' W 095°01'3 6.7
2017-Sep-22 01:00N 29°40' W 094°59'4 7.3
2017-Sep-22 00:30N 29°37' W 094°57'4 7.5
2017-Sep-22 00:00N 29°34' W 094°55'4 7.2
2017-Sep-21 23:30N 29°31' W 094°53'67 3.0
2017-Sep-21 00:58N 30°02' W 093°44'3 5.7
2017-Sep-21 00:28N 30°04' W 093°42'2 4.4
2017-Sep-21 00:00N 30°04' W 093°39'3 5.4
2017-Sep-20 23:30N 30°04' W 093°36'2 5.0
2017-Sep-20 23:00N 30°04' W 093°33'2 4.9
2017-Sep-20 22:30N 30°04' W 093°31'2 5.0
2017-Sep-20 22:00N 30°04' W 093°28'2 5.0
2017-Sep-20 21:30N 30°04' W 093°25'2 3.8
2017-Sep-20 21:00N 30°04' W 093°23'1 2.7
2017-Sep-20 20:30N 30°04' W 093°21'2 3.5
2017-Sep-20 20:00N 30°05' W 093°20'1 2.9
2017-Sep-20 19:30N 30°07' W 093°20'1 2.7
2017-Sep-20 19:00N 30°08' W 093°20'0 0.3
2017-Sep-20 18:31N 30°08' W 093°20'0 0.7
2017-Sep-20 18:00N 30°08' W 093°19'0 0.0
2017-Sep-20 17:30N 30°08' W 093°19'0 0.0
2017-Sep-20 17:00N 30°08' W 093°19'0 0.0
2017-Sep-20 16:30N 30°08' W 093°19'0 0.0
2017-Sep-20 16:00N 30°08' W 093°19'0 0.0
2017-Sep-20 15:30N 30°08' W 093°19'0 0.0
2017-Sep-20 15:00N 30°08' W 093°19'0 0.0
2017-Sep-20 14:00N 30°08' W 093°19'0 0.0
2017-Sep-20 13:30N 30°08' W 093°19'0 0.0
2017-Sep-20 13:00N 30°08' W 093°19'0 0.0
2017-Sep-20 12:30N 30°08' W 093°19'0 0.0
2017-Sep-20 12:00N 30°08' W 093°19'0 0.0
2017-Sep-20 11:30N 30°08' W 093°19'0 0.0
2017-Sep-20 11:00N 30°08' W 093°19'0 0.0
2017-Sep-20 10:30N 30°08' W 093°19'0 0.0
2017-Sep-20 10:00N 30°08' W 093°19'0 0.0
2017-Sep-20 09:30N 30°08' W 093°19'0 0.0
2017-Sep-20 09:00N 30°08' W 093°19'0 0.0
2017-Sep-20 08:30N 30°08' W 093°19'0 0.0
2017-Sep-20 08:00N 30°08' W 093°19'0 0.0
2017-Sep-20 07:30N 30°08' W 093°19'0 0.0
2017-Sep-20 07:00N 30°08' W 093°19'0 0.0
2017-Sep-20 06:30N 30°08' W 093°19'0 0.0
2017-Sep-20 06:00N 30°08' W 093°19'0 0.0
2017-Sep-20 05:30N 30°08' W 093°19'0 0.0
2017-Sep-20 05:00N 30°08' W 093°19'0 0.0
2017-Sep-20 04:30N 30°08' W 093°19'0 0.0
2017-Sep-20 04:00N 30°08' W 093°19'0 0.0
2017-Sep-20 03:30N 30°08' W 093°19'0 0.0
2017-Sep-20 03:00N 30°08' W 093°19'0 0.0
2017-Sep-20 02:30N 30°08' W 093°19'0 0.0
2017-Sep-20 02:00N 30°08' W 093°19'0 0.0
2017-Sep-20 01:30N 30°08' W 093°19'0 0.0
2017-Sep-20 01:00N 30°08' W 093°19'0 0.0
2017-Sep-20 00:30N 30°08' W 093°19'0 0.0
2017-Sep-20 00:00N 30°08' W 093°19'0 0.0
2017-Sep-19 23:30N 30°08' W 093°19'0 0.0
2017-Sep-19 23:00N 30°08' W 093°19'0 0.0
2017-Sep-19 22:30N 30°08' W 093°19'0 0.0
2017-Sep-19 22:00N 30°08' W 093°19'0 0.0
2017-Sep-19 21:30N 30°08' W 093°19'0 0.1
2017-Sep-19 21:00N 30°08' W 093°19'0 0.5
2017-Sep-19 20:30N 30°08' W 093°20'0 0.0
2017-Sep-19 20:00N 30°08' W 093°20'0 0.0
2017-Sep-19 19:30N 30°08' W 093°20'0 0.0
2017-Sep-19 19:00N 30°08' W 093°20'0 0.0
2017-Sep-19 18:30N 30°08' W 093°20'0 0.0
2017-Sep-19 18:00N 30°08' W 093°20'0 0.0
2017-Sep-19 17:30N 30°08' W 093°20'0 0.0
2017-Sep-19 17:00N 30°08' W 093°20'0 0.0
2017-Sep-19 16:30N 30°08' W 093°20'0 0.0
2017-Sep-19 16:00N 30°08' W 093°20'0 0.0
2017-Sep-19 15:30N 30°08' W 093°20'0 0.0
2017-Sep-19 15:00N 30°08' W 093°20'0 0.0
2017-Sep-19 14:30N 30°08' W 093°20'0 0.0
2017-Sep-19 14:00N 30°08' W 093°20'0 0.0
2017-Sep-19 13:30N 30°08' W 093°20'0 0.0
2017-Sep-19 13:00N 30°08' W 093°20'0 0.0
2017-Sep-19 12:30N 30°08' W 093°20'0 0.0
2017-Sep-19 12:00N 30°08' W 093°20'0 0.0
2017-Sep-19 11:30N 30°08' W 093°20'0 0.0
2017-Sep-19 11:00N 30°08' W 093°20'0 0.0
2017-Sep-19 10:30N 30°08' W 093°20'0 0.0
2017-Sep-19 10:00N 30°08' W 093°20'0 0.0
2017-Sep-19 09:30N 30°08' W 093°20'2 3.3
2017-Sep-19 09:00N 30°06' W 093°20'3 6.1
2017-Sep-19 08:30N 30°04' W 093°21'3 6.4
2017-Sep-19 08:00N 30°04' W 093°25'3 6.8
2017-Sep-19 07:30N 30°04' W 093°29'3 6.6
2017-Sep-19 06:59N 30°04' W 093°33'  
2017-Sep-16 22:52N 29°32' W 094°54'3 8.0
2017-Sep-16 22:30N 29°34' W 094°56'4 8.0
2017-Sep-16 22:00N 29°38' W 094°58'4 8.1
2017-Sep-16 21:30N 29°42' W 094°60'4 7.2
2017-Sep-16 20:58N 29°44' W 095°03'2 0.2
2017-Sep-16 08:34N 29°45' W 095°06'0 1.7
2017-Sep-16 08:18N 29°46' W 095°06'0 0.2
2017-Sep-16 06:24N 29°46' W 095°06'0 0.1
2017-Sep-16 03:09N 29°46' W 095°06'0 1.5
2017-Sep-16 02:58N 29°46' W 095°05'3 6.2
2017-Sep-16 02:30N 29°44' W 095°03'3 6.4
2017-Sep-16 02:00N 29°42' W 095°00'3 6.7
2017-Sep-16 01:30N 29°39' W 094°58'4 7.7
2017-Sep-16 01:00N 29°36' W 094°56'4 8.2
2017-Sep-16 00:30N 29°32' W 094°54'0 0.0
2017-Sep-15 08:00N 29°32' W 094°54'3 6.9
2017-Sep-15 07:30N 29°35' W 094°56'4 7.2
2017-Sep-15 07:00N 29°38' W 094°58'4 7.4
2017-Sep-15 06:30N 29°41' W 094°59'3 6.5
2017-Sep-15 06:00N 29°44' W 095°02'1 0.1
2017-Sep-14 13:41N 29°44' W 095°03'3 5.4
2017-Sep-14 13:04N 29°47' W 095°05'0 0.5
2017-Sep-14 12:34N 29°47' W 095°05'1 0.2
2017-Sep-14 07:34N 29°47' W 095°04'0 0.2
2017-Sep-14 07:25N 29°47' W 095°04'2 2.9
2017-Sep-14 06:45N 29°46' W 095°05'3 6.4
2017-Sep-14 06:12N 29°44' W 095°09'  
Track history (hours):
 
Tides and Currents Weather Stations Pressure Air Temp Water Temp Dewpoint Dewpoint Depression Visibility Wind Speed Wind Dir Waves Ship Positions

Savage Integrity

Owner: Savage Inland Marine, Gibson, LA. More information available from US FCC via Universal Licensing System and Coast Guard Vessel Documentation Center.

Last reported at 2017-Sep-24 03:00 UTC. Time now 2017-Sep-24 03:16 UTC.
Position N 30°05' W 093°20'.

Length 25 m; draft 2.9 m.

Type: Towing. MMSI: 367547030.

Date/timePositionNaut miles runAvg speedWind from/ knotsBaromVisibWave heightAir tempDewpointWater temp
2017-Sep-24 03:00N 30°05' W 093°20'0 0.0
2017-Sep-24 02:30N 30°05' W 093°20'0 0.0
2017-Sep-24 02:00N 30°05' W 093°20'1 1.0
2017-Sep-24 01:30N 30°05' W 093°20'0 0.0
2017-Sep-24 01:00N 30°05' W 093°20'0 0.0
2017-Sep-24 00:30N 30°05' W 093°20'0 0.0
2017-Sep-24 00:01N 30°05' W 093°20'1 1.0
2017-Sep-23 23:30N 30°05' W 093°20'0 0.1
2017-Sep-23 23:00N 30°05' W 093°20'2 3.0
2017-Sep-23 22:30N 30°06' W 093°19'0 0.2
2017-Sep-23 22:00N 30°06' W 093°19'2 3.9
2017-Sep-23 21:30N 30°04' W 093°21'2 3.9
2017-Sep-23 21:01N 30°04' W 093°23'3 5.5
2017-Sep-23 20:30N 30°04' W 093°26'3 5.6
2017-Sep-23 20:00N 30°04' W 093°29'84 2.0
2017-Sep-22 02:00N 29°45' W 095°04'3 6.1
2017-Sep-22 01:30N 29°43' W 095°01'3 6.7
2017-Sep-22 01:00N 29°40' W 094°59'4 7.3
2017-Sep-22 00:30N 29°37' W 094°57'4 7.5
2017-Sep-22 00:00N 29°34' W 094°55'4 7.2
2017-Sep-21 23:30N 29°31' W 094°53'67 3.0
2017-Sep-21 00:58N 30°02' W 093°44'3 5.7
2017-Sep-21 00:28N 30°04' W 093°42'2 4.4
2017-Sep-21 00:00N 30°04' W 093°39'3 5.4
2017-Sep-20 23:30N 30°04' W 093°36'2 5.0
2017-Sep-20 23:00N 30°04' W 093°33'2 4.9
2017-Sep-20 22:30N 30°04' W 093°31'2 5.0
2017-Sep-20 22:00N 30°04' W 093°28'2 5.0
2017-Sep-20 21:30N 30°04' W 093°25'2 3.8
2017-Sep-20 21:00N 30°04' W 093°23'1 2.7
2017-Sep-20 20:30N 30°04' W 093°21'2 3.5
2017-Sep-20 20:00N 30°05' W 093°20'1 2.9
2017-Sep-20 19:30N 30°07' W 093°20'1 2.7
2017-Sep-20 19:00N 30°08' W 093°20'0 0.3
2017-Sep-20 18:31N 30°08' W 093°20'0 0.7
2017-Sep-20 18:00N 30°08' W 093°19'0 0.0
2017-Sep-20 17:30N 30°08' W 093°19'0 0.0
2017-Sep-20 17:00N 30°08' W 093°19'0 0.0
2017-Sep-20 16:30N 30°08' W 093°19'0 0.0
2017-Sep-20 16:00N 30°08' W 093°19'0 0.0
2017-Sep-20 15:30N 30°08' W 093°19'0 0.0
2017-Sep-20 15:00N 30°08' W 093°19'0 0.0
2017-Sep-20 14:00N 30°08' W 093°19'0 0.0
2017-Sep-20 13:30N 30°08' W 093°19'0 0.0
2017-Sep-20 13:00N 30°08' W 093°19'0 0.0
2017-Sep-20 12:30N 30°08' W 093°19'0 0.0
2017-Sep-20 12:00N 30°08' W 093°19'0 0.0
2017-Sep-20 11:30N 30°08' W 093°19'0 0.0
2017-Sep-20 11:00N 30°08' W 093°19'0 0.0
2017-Sep-20 10:30N 30°08' W 093°19'0 0.0
2017-Sep-20 10:00N 30°08' W 093°19'0 0.0
2017-Sep-20 09:30N 30°08' W 093°19'0 0.0
2017-Sep-20 09:00N 30°08' W 093°19'0 0.0
2017-Sep-20 08:30N 30°08' W 093°19'0 0.0
2017-Sep-20 08:00N 30°08' W 093°19'0 0.0
2017-Sep-20 07:30N 30°08' W 093°19'0 0.0
2017-Sep-20 07:00N 30°08' W 093°19'0 0.0
2017-Sep-20 06:30N 30°08' W 093°19'0 0.0
2017-Sep-20 06:00N 30°08' W 093°19'0 0.0
2017-Sep-20 05:30N 30°08' W 093°19'0 0.0
2017-Sep-20 05:00N 30°08' W 093°19'0 0.0
2017-Sep-20 04:30N 30°08' W 093°19'0 0.0
2017-Sep-20 04:00N 30°08' W 093°19'0 0.0
2017-Sep-20 03:30N 30°08' W 093°19'0 0.0
2017-Sep-20 03:00N 30°08' W 093°19'0 0.0
2017-Sep-20 02:30N 30°08' W 093°19'0 0.0
2017-Sep-20 02:00N 30°08' W 093°19'0 0.0
2017-Sep-20 01:30N 30°08' W 093°19'0 0.0
2017-Sep-20 01:00N 30°08' W 093°19'0 0.0
2017-Sep-20 00:30N 30°08' W 093°19'0 0.0
2017-Sep-20 00:00N 30°08' W 093°19'0 0.0
2017-Sep-19 23:30N 30°08' W 093°19'0 0.0
2017-Sep-19 23:00N 30°08' W 093°19'0 0.0
2017-Sep-19 22:30N 30°08' W 093°19'0 0.0
2017-Sep-19 22:00N 30°08' W 093°19'0 0.0
2017-Sep-19 21:30N 30°08' W 093°19'0 0.1
2017-Sep-19 21:00N 30°08' W 093°19'0 0.5
2017-Sep-19 20:30N 30°08' W 093°20'0 0.0
2017-Sep-19 20:00N 30°08' W 093°20'0 0.0
2017-Sep-19 19:30N 30°08' W 093°20'0 0.0
2017-Sep-19 19:00N 30°08' W 093°20'0 0.0
2017-Sep-19 18:30N 30°08' W 093°20'0 0.0
2017-Sep-19 18:00N 30°08' W 093°20'0 0.0
2017-Sep-19 17:30N 30°08' W 093°20'0 0.0
2017-Sep-19 17:00N 30°08' W 093°20'0 0.0
2017-Sep-19 16:30N 30°08' W 093°20'0 0.0
2017-Sep-19 16:00N 30°08' W 093°20'0 0.0
2017-Sep-19 15:30N 30°08' W 093°20'0 0.0
2017-Sep-19 15:00N 30°08' W 093°20'0 0.0
2017-Sep-19 14:30N 30°08' W 093°20'0 0.0
2017-Sep-19 14:00N 30°08' W 093°20'0 0.0
2017-Sep-19 13:30N 30°08' W 093°20'0 0.0
2017-Sep-19 13:00N 30°08' W 093°20'0 0.0
2017-Sep-19 12:30N 30°08' W 093°20'0 0.0
2017-Sep-19 12:00N 30°08' W 093°20'0 0.0
2017-Sep-19 11:30N 30°08' W 093°20'0 0.0
2017-Sep-19 11:00N 30°08' W 093°20'0 0.0
2017-Sep-19 10:30N 30°08' W 093°20'0 0.0
2017-Sep-19 10:00N 30°08' W 093°20'0 0.0
2017-Sep-19 09:30N 30°08' W 093°20'2 3.3
2017-Sep-19 09:00N 30°06' W 093°20'3 6.1
2017-Sep-19 08:30N 30°04' W 093°21'3 6.4
2017-Sep-19 08:00N 30°04' W 093°25'3 6.8
2017-Sep-19 07:30N 30°04' W 093°29'3 6.6
2017-Sep-19 06:59N 30°04' W 093°33'  
2017-Sep-16 22:52N 29°32' W 094°54'3 8.0
2017-Sep-16 22:30N 29°34' W 094°56'4 8.0
2017-Sep-16 22:00N 29°38' W 094°58'4 8.1
2017-Sep-16 21:30N 29°42' W 094°60'4 7.2
2017-Sep-16 20:58N 29°44' W 095°03'2 0.2
2017-Sep-16 08:34N 29°45' W 095°06'0 1.7
2017-Sep-16 08:18N 29°46' W 095°06'0 0.2
2017-Sep-16 06:24N 29°46' W 095°06'0 0.1
2017-Sep-16 03:09N 29°46' W 095°06'0 1.5
2017-Sep-16 02:58N 29°46' W 095°05'3 6.2
2017-Sep-16 02:30N 29°44' W 095°03'3 6.4
2017-Sep-16 02:00N 29°42' W 095°00'3 6.7
2017-Sep-16 01:30N 29°39' W 094°58'4 7.7
2017-Sep-16 01:00N 29°36' W 094°56'4 8.2
2017-Sep-16 00:30N 29°32' W 094°54'0 0.0
2017-Sep-15 08:00N 29°32' W 094°54'3 6.9
2017-Sep-15 07:30N 29°35' W 094°56'4 7.2
2017-Sep-15 07:00N 29°38' W 094°58'4 7.4
2017-Sep-15 06:30N 29°41' W 094°59'3 6.5
2017-Sep-15 06:00N 29°44' W 095°02'1 0.1
2017-Sep-14 13:41N 29°44' W 095°03'3 5.4
2017-Sep-14 13:04N 29°47' W 095°05'0 0.5
2017-Sep-14 12:34N 29°47' W 095°05'1 0.2
2017-Sep-14 07:34N 29°47' W 095°04'0 0.2
2017-Sep-14 07:25N 29°47' W 095°04'2 2.9
2017-Sep-14 06:45N 29°46' W 095°05'3 6.4
2017-Sep-14 06:12N 29°44' W 095°09'  

Dump ship's entire track history